createdAt,value
2023-02-07T00:00:55.049Z,102606.03
2023-02-07T00:03:27.040Z,102611.97
2023-02-07T00:06:09.532Z,102597.44
2023-02-07T00:08:42.454Z,102584.53
2023-02-07T00:11:17.393Z,102594.44
2023-02-07T00:13:53.442Z,102595.25
2023-02-07T00:16:26.491Z,102576.72
2023-02-07T00:19:00.245Z,102562.44
2023-02-07T00:21:32.531Z,102580.91
2023-02-07T00:24:04.816Z,102558.16
2023-02-07T00:26:36.833Z,102562.84
2023-02-07T00:29:08.801Z,102476.06
2023-02-07T00:31:41.086Z,102548.44
2023-02-07T00:34:13.485Z,102589.56
2023-02-07T00:36:45.461Z,102561.88
2023-02-07T00:39:18.329Z,102588.59
2023-02-07T00:41:50.854Z,102579.84
2023-02-07T00:44:22.857Z,102582.41
2023-02-07T00:46:54.844Z,102577.22
2023-02-07T00:49:27.437Z,102589.97
2023-02-07T00:51:59.365Z,102557.25
2023-02-07T00:54:31.368Z,102580.69
2023-02-07T00:57:03.350Z,102582.75
2023-02-07T00:59:35.340Z,102565.31
2023-02-07T01:02:07.282Z,102549.78
2023-02-07T01:04:39.340Z,102567.88
2023-02-07T01:07:11.516Z,102545.88
2023-02-07T01:09:43.792Z,102507.88
2023-02-07T01:12:15.745Z,102484.16
2023-02-07T01:14:47.745Z,102552.84
2023-02-07T01:17:19.789Z,102566.16
2023-02-07T01:19:56.160Z,102546.81
2023-02-07T01:22:29.742Z,102552.75
2023-02-07T01:25:01.739Z,102539.56
2023-02-07T01:27:34.884Z,102567.31
2023-02-07T01:30:07.245Z,102553.50
2023-02-07T01:32:39.510Z,102563.78
2023-02-07T01:35:11.571Z,102568.84
2023-02-07T01:37:43.529Z,102576.25
2023-02-07T01:40:15.720Z,102546.59
2023-02-07T01:42:47.682Z,102579.06
2023-02-07T01:45:39.534Z,102575.06
2023-02-07T01:48:17.383Z,102546.75
2023-02-07T01:50:51.989Z,102573.97
2023-02-07T01:53:26.639Z,102588.81
2023-02-07T01:56:03.044Z,102586.31
2023-02-07T01:58:36.745Z,102521.34
2023-02-07T02:01:17.231Z,102573.56
2023-02-07T02:03:51.042Z,102573.97
2023-02-07T02:06:26.223Z,102567.00
2023-02-07T02:09:00.465Z,102576.72
2023-02-07T02:12:12.439Z,102565.44
2023-02-07T02:15:26.571Z,102568.03
2023-02-07T02:18:10.575Z,102570.16
2023-02-07T02:21:13.095Z,102594.00
2023-02-07T02:24:10.528Z,102588.06
2023-02-07T02:26:56.250Z,102593.16
2023-02-07T02:29:59.009Z,102584.03
2023-02-07T02:32:52.311Z,102575.84
2023-02-07T02:35:52.430Z,102580.66
2023-02-07T02:38:39.766Z,102566.75
2023-02-07T02:41:16.048Z,102564.72
2023-02-07T02:43:52.278Z,102565.19
2023-02-07T02:46:39.142Z,102565.22
2023-02-07T02:49:14.619Z,102566.09
2023-02-07T02:51:50.833Z,102528.84
2023-02-07T02:54:34.760Z,102560.69
2023-02-07T02:57:44.346Z,102559.63
2023-02-07T03:00:50.446Z,102560.47
2023-02-07T03:04:07.078Z,102557.00
2023-02-07T03:06:49.631Z,102568.06
2023-02-07T03:09:44.400Z,102562.00
2023-02-07T03:12:25.067Z,102557.69
2023-02-07T03:15:04.083Z,102558.09
2023-02-07T03:17:58.072Z,102552.81
2023-02-07T03:20:34.930Z,102552.84
2023-02-07T03:23:09.462Z,102559.69
2023-02-07T03:25:42.960Z,102549.28
2023-02-07T03:28:17.403Z,102552.66
2023-02-07T03:30:52.228Z,102542.72
2023-02-07T03:33:25.869Z,102532.84
2023-02-07T03:36:17.001Z,102534.00
2023-02-07T03:38:49.007Z,102534.97
2023-02-07T03:41:44.759Z,102515.06
2023-02-07T03:44:21.600Z,102537.06
2023-02-07T03:46:55.094Z,102536.22
2023-02-07T03:49:27.320Z,102512.06
2023-02-07T03:52:00.782Z,102488.81
2023-02-07T03:54:32.932Z,102537.19
2023-02-07T03:57:05.504Z,102523.03
2023-02-07T03:59:37.541Z,102505.09
2023-02-07T04:02:09.625Z,102511.19
2023-02-07T04:04:41.960Z,102523.31
2023-02-07T04:07:14.024Z,102512.75
2023-02-07T04:09:45.929Z,102527.41
2023-02-07T04:12:17.899Z,102520.59
2023-02-07T04:14:49.875Z,102511.94
2023-02-07T04:17:21.797Z,102520.72
2023-02-07T04:19:53.878Z,102519.97
2023-02-07T04:22:25.947Z,102532.44
2023-02-07T04:24:58.233Z,102506.66
2023-02-07T04:27:30.204Z,102527.19
2023-02-07T04:30:02.299Z,102518.47
2023-02-07T04:32:34.291Z,102527.16
2023-02-07T04:35:06.510Z,102457.78
2023-02-07T04:37:38.467Z,102495.38
2023-02-07T04:40:11.033Z,102526.44
2023-02-07T04:42:42.981Z,102514.13
2023-02-07T04:45:15.251Z,102530.13
2023-02-07T04:47:48.513Z,102498.28
2023-02-07T04:50:20.462Z,102469.34
2023-02-07T04:52:52.471Z,102497.63
2023-02-07T04:55:24.637Z,102476.97
2023-02-07T04:57:56.610Z,102507.84
2023-02-07T05:00:28.811Z,102445.28
2023-02-07T05:03:01.543Z,102503.09
2023-02-07T05:05:33.672Z,102515.78
2023-02-07T05:08:05.654Z,102439.75
2023-02-07T05:10:38.611Z,102501.22
2023-02-07T05:13:10.740Z,102517.41
2023-02-07T05:15:43.457Z,102508.47
2023-02-07T05:18:15.764Z,102506.88
2023-02-07T05:20:48.054Z,102517.06
2023-02-07T05:23:20.051Z,102502.28
2023-02-07T05:25:51.987Z,102456.13
2023-02-07T05:28:24.213Z,102432.72
2023-02-07T05:30:57.225Z,102481.81
2023-02-07T05:33:29.270Z,102465.53
2023-02-07T05:36:05.453Z,102486.28
2023-02-07T05:38:37.430Z,102478.03
2023-02-07T05:41:09.390Z,102446.59
2023-02-07T05:43:41.385Z,102493.72
2023-02-07T05:46:13.349Z,102501.38
2023-02-07T05:48:45.362Z,102489.63
2023-02-07T05:51:17.452Z,102470.91
2023-02-07T05:53:49.531Z,102507.66
2023-02-07T05:56:22.276Z,102513.06
2023-02-07T05:58:54.950Z,102516.34
2023-02-07T06:01:26.916Z,102498.63
2023-02-07T06:04:01.611Z,102519.81
2023-02-07T06:06:33.937Z,102494.28
2023-02-07T06:09:06.027Z,102494.31
2023-02-07T06:11:37.996Z,102508.00
2023-02-07T06:14:10.004Z,102511.31
2023-02-07T06:16:42.242Z,102528.72
2023-02-07T06:19:15.338Z,102469.38
2023-02-07T06:21:47.296Z,102476.88
2023-02-07T06:24:19.464Z,102443.19
2023-02-07T06:26:51.552Z,102449.28
2023-02-07T06:29:23.522Z,102510.13
2023-02-07T06:31:55.514Z,102532.28
2023-02-07T06:34:27.672Z,102509.16
2023-02-07T06:36:59.600Z,102499.25
2023-02-07T06:39:33.161Z,102533.25
2023-02-07T06:42:09.443Z,102447.09
2023-02-07T06:44:41.531Z,102525.94
2023-02-07T06:47:13.623Z,102477.88
2023-02-07T06:49:45.465Z,102503.59
2023-02-07T06:52:17.685Z,102529.53
2023-02-07T06:54:49.644Z,102442.88
2023-02-07T06:57:21.595Z,102527.91
2023-02-07T06:59:53.751Z,102557.28
2023-02-07T07:02:25.769Z,102493.94
2023-02-07T07:04:58.731Z,102544.88
2023-02-07T07:07:30.628Z,102514.16
2023-02-07T07:10:02.624Z,102559.28
2023-02-07T07:12:34.834Z,102541.66
2023-02-07T07:15:07.490Z,102552.50
2023-02-07T07:17:39.474Z,102511.22
2023-02-07T07:20:11.905Z,102557.78
2023-02-07T07:22:44.108Z,102544.53
2023-02-07T07:25:16.109Z,102550.28
2023-02-07T07:27:48.376Z,102558.78
2023-02-07T07:30:20.805Z,102539.03
2023-02-07T07:32:52.776Z,102559.91
2023-02-07T07:35:24.721Z,102526.34
2023-02-07T07:37:57.395Z,102536.28
2023-02-07T07:40:30.158Z,102559.34
2023-02-07T07:43:02.344Z,102556.72
2023-02-07T07:45:37.587Z,102577.50
2023-02-07T07:48:09.624Z,102516.97
2023-02-07T07:50:42.047Z,102574.63
2023-02-07T07:53:15.097Z,102582.00
2023-02-07T07:55:56.300Z,102521.69
2023-02-07T07:58:29.261Z,102568.16
2023-02-07T08:01:01.298Z,102565.28
2023-02-07T08:03:33.328Z,102580.97
2023-02-07T08:06:05.770Z,102537.31
2023-02-07T08:08:37.946Z,102577.63
2023-02-07T08:11:10.619Z,102596.28
2023-02-07T08:13:42.716Z,102596.38
2023-02-07T08:16:15.427Z,102596.47
2023-02-07T08:18:47.436Z,102574.56
2023-02-07T08:21:19.707Z,102569.44
2023-02-07T08:23:51.777Z,102566.88
2023-02-07T08:26:23.731Z,102590.19
2023-02-07T08:28:55.696Z,102569.16
2023-02-07T08:31:27.712Z,102589.59
2023-02-07T08:33:59.708Z,102609.88
2023-02-07T08:36:31.682Z,102586.47
2023-02-07T08:39:06.365Z,102563.84
2023-02-07T08:41:38.572Z,102602.97
2023-02-07T08:44:10.989Z,102610.38
2023-02-07T08:46:43.281Z,102575.53
2023-02-07T08:49:15.262Z,102596.06
2023-02-07T08:51:47.449Z,102611.06
2023-02-07T08:54:20.091Z,102617.09
2023-02-07T08:56:52.065Z,102586.56
2023-02-07T08:59:24.210Z,102587.72
2023-02-07T09:01:56.244Z,102634.88
2023-02-07T09:04:28.455Z,102615.88
2023-02-07T09:07:00.454Z,102639.50
2023-02-07T09:09:33.443Z,102586.59
2023-02-07T09:12:05.636Z,102626.75
2023-02-07T09:14:39.611Z,102639.69
2023-02-07T09:17:13.048Z,102641.09
2023-02-07T09:19:45.013Z,102638.16
2023-02-07T09:22:17.427Z,102626.41
2023-02-07T09:24:49.585Z,102603.13
2023-02-07T09:27:21.612Z,102548.13
2023-02-07T09:29:53.536Z,102622.00
2023-02-07T09:32:26.004Z,102618.75
2023-02-07T09:34:58.727Z,102592.94
2023-02-07T09:37:34.864Z,102611.09
2023-02-07T09:40:19.602Z,102609.44
2023-02-07T09:42:58.827Z,102598.13
2023-02-07T09:45:37.985Z,102594.88
2023-02-07T09:48:45.892Z,102569.97
2023-02-07T09:51:21.285Z,102600.19
2023-02-07T09:54:00.618Z,102597.69
2023-02-07T09:56:35.465Z,102593.56
2023-02-07T09:59:31.001Z,102586.84
2023-02-07T10:02:15.282Z,102598.84
2023-02-07T10:04:50.699Z,102590.44
2023-02-07T10:07:22.895Z,102585.13
2023-02-07T10:09:54.845Z,102582.75
2023-02-07T10:12:33.487Z,102582.69
2023-02-07T10:15:10.450Z,102586.97
2023-02-07T10:18:05.392Z,102591.31
2023-02-07T10:20:41.563Z,102589.31
2023-02-07T10:23:32.618Z,102585.91
2023-02-07T10:26:17.350Z,102586.38
2023-02-07T10:29:26.456Z,102587.03
2023-02-07T10:32:03.996Z,102586.94
2023-02-07T10:34:40.333Z,102574.50
2023-02-07T10:37:20.153Z,102580.34
2023-02-07T10:40:07.032Z,102587.34
2023-02-07T10:42:40.639Z,102556.56
2023-02-07T10:45:14.959Z,102592.63
2023-02-07T10:47:46.984Z,102578.78
2023-02-07T10:50:29.780Z,102564.06
2023-02-07T10:53:02.167Z,102562.34
2023-02-07T10:55:45.145Z,102550.47
2023-02-07T10:58:23.913Z,102555.66
2023-02-07T11:00:57.315Z,102552.28
2023-02-07T11:03:31.335Z,102539.66
2023-02-07T11:06:08.292Z,102581.19
2023-02-07T11:08:41.523Z,102557.38
2023-02-07T11:11:33.550Z,102585.34
2023-02-07T11:14:07.609Z,102583.00
2023-02-07T11:16:47.356Z,102553.03
2023-02-07T11:19:23.496Z,102544.38
2023-02-07T11:22:19.907Z,102561.66
2023-02-07T11:25:01.266Z,102561.97
2023-02-07T11:27:40.505Z,102560.84
2023-02-07T11:30:17.785Z,102552.44
2023-02-07T11:33:02.342Z,102532.13
2023-02-07T11:35:34.221Z,102544.13
2023-02-07T11:38:16.111Z,102516.53
2023-02-07T11:40:49.063Z,102564.56
2023-02-07T11:43:26.144Z,102538.66
2023-02-07T11:46:03.972Z,102557.53
2023-02-07T11:48:38.865Z,102557.72
2023-02-07T11:51:17.645Z,102568.63
2023-02-07T11:54:11.916Z,102560.81
2023-02-07T11:56:49.044Z,102518.16
2023-02-07T11:59:24.426Z,102559.25
2023-02-07T12:02:26.913Z,102566.25
2023-02-07T12:05:30.420Z,102557.38
2023-02-07T12:08:15.673Z,102554.03
2023-02-07T12:10:51.827Z,102534.22
2023-02-07T12:13:32.889Z,102521.84
2023-02-07T12:16:11.825Z,102556.78
2023-02-07T12:19:11.743Z,102568.66
2023-02-07T12:21:55.065Z,102558.66
2023-02-07T12:24:33.393Z,102552.00
2023-02-07T12:27:18.559Z,102535.63
2023-02-07T12:30:14.429Z,102562.88
2023-02-07T12:32:49.558Z,102567.19
2023-02-07T12:35:27.258Z,102563.03
2023-02-07T12:38:21.974Z,102568.91
2023-02-07T12:40:59.761Z,102563.53
2023-02-07T12:43:36.224Z,102536.97
2023-02-07T12:46:21.964Z,102556.72
2023-02-07T12:49:24.393Z,102553.50
2023-02-07T12:52:21.215Z,102563.69
2023-02-07T12:55:02.078Z,102563.75
2023-02-07T12:57:49.311Z,102565.47
2023-02-07T13:00:31.470Z,102568.09
2023-02-07T13:03:11.399Z,102562.78
2023-02-07T13:05:58.355Z,102562.66
2023-02-07T13:08:48.572Z,102572.16
2023-02-07T13:11:26.876Z,102576.59
2023-02-07T13:14:11.794Z,102577.97
2023-02-07T13:16:53.204Z,102579.09
2023-02-07T13:19:31.198Z,102584.06
2023-02-07T13:22:12.304Z,102573.75
2023-02-07T13:24:47.842Z,102523.44
2023-02-07T13:27:22.159Z,102538.94
2023-02-07T13:29:54.433Z,102556.22
2023-02-07T13:32:28.208Z,102559.47
2023-02-07T13:35:08.163Z,102589.28
2023-02-07T13:38:18.042Z,102589.44
2023-02-07T13:41:04.806Z,102588.34
2023-02-07T13:44:09.384Z,102581.44
2023-02-07T13:46:56.896Z,102597.03
2023-02-07T13:49:54.668Z,102594.38
2023-02-07T13:52:45.063Z,102586.59
2023-02-07T13:55:20.051Z,102597.03
2023-02-07T13:58:11.489Z,102554.28
2023-02-07T14:00:56.395Z,102591.88
2023-02-07T14:03:32.180Z,102602.00
2023-02-07T14:06:23.989Z,102595.25
2023-02-07T14:09:16.745Z,102595.31
2023-02-07T14:12:02.211Z,102577.38
2023-02-07T14:14:37.899Z,102598.75
2023-02-07T14:17:35.298Z,102596.91
2023-02-07T14:20:33.163Z,102593.56
2023-02-07T14:23:20.072Z,102595.38
2023-02-07T14:25:52.189Z,102567.88
2023-02-07T14:28:36.687Z,102568.38
2023-02-07T14:31:21.196Z,102593.25
2023-02-07T14:34:15.171Z,102579.47
2023-02-07T14:36:48.566Z,102586.38
2023-02-07T14:39:20.510Z,102595.19
2023-02-07T14:41:53.148Z,102580.53
2023-02-07T14:44:35.299Z,102599.31
2023-02-07T14:47:09.762Z,102594.16
2023-02-07T14:49:48.178Z,102592.38
2023-02-07T14:52:32.999Z,102593.06
2023-02-07T14:55:22.696Z,102562.25
2023-02-07T14:58:07.775Z,102595.69
2023-02-07T15:00:49.156Z,102603.34
2023-02-07T15:03:21.694Z,102547.81
2023-02-07T15:05:53.679Z,102619.66
2023-02-07T15:08:28.214Z,102629.81
2023-02-07T15:11:02.723Z,102620.50
2023-02-07T15:13:41.926Z,102620.50
2023-02-07T15:16:48.866Z,102625.59
2023-02-07T15:19:35.018Z,102603.38
2023-02-07T15:22:20.425Z,102630.47
2023-02-07T15:24:59.085Z,102616.97
2023-02-07T15:27:31.067Z,102599.88
2023-02-07T15:30:07.488Z,102628.97
2023-02-07T15:32:46.486Z,102630.69
2023-02-07T15:35:31.210Z,102633.19
2023-02-07T15:38:28.055Z,102644.31
2023-02-07T15:41:00.421Z,102627.25
2023-02-07T15:43:35.310Z,102640.72
2023-02-07T15:46:10.475Z,102639.81
2023-02-07T15:48:51.848Z,102617.69
2023-02-07T15:51:29.363Z,102616.84
2023-02-07T15:54:02.145Z,102652.59
2023-02-07T15:56:34.385Z,102661.28
2023-02-07T15:59:11.617Z,102617.47
2023-02-07T16:01:44.078Z,102645.78
2023-02-07T16:04:16.112Z,102661.25
2023-02-07T16:06:58.910Z,102640.66
2023-02-07T16:09:42.332Z,102663.00
2023-02-07T16:12:33.181Z,102656.13
2023-02-07T16:15:21.990Z,102652.59
2023-02-07T16:17:54.994Z,102661.09
2023-02-07T16:20:28.893Z,102662.91
2023-02-07T16:23:04.574Z,102659.19
2023-02-07T16:25:37.274Z,102636.03
2023-02-07T16:28:14.864Z,102657.53
2023-02-07T16:30:46.864Z,102619.13
2023-02-07T16:33:18.883Z,102614.34
2023-02-07T16:35:50.841Z,102614.56
2023-02-07T16:38:22.767Z,102661.00
2023-02-07T16:40:54.925Z,102626.41
2023-02-07T16:43:35.361Z,102648.50
2023-02-07T16:46:07.454Z,102664.06
2023-02-07T16:48:39.520Z,102637.34
2023-02-07T16:51:11.477Z,102662.44
2023-02-07T16:53:43.730Z,102694.09
2023-02-07T16:56:26.031Z,102635.00
2023-02-07T16:58:58.182Z,102659.97
2023-02-07T17:01:30.905Z,102677.06
2023-02-07T17:04:02.812Z,102687.44
2023-02-07T17:06:35.150Z,102612.75
2023-02-07T17:09:19.070Z,102700.13
2023-02-07T17:11:52.769Z,102706.19
2023-02-07T17:14:24.742Z,102708.66
2023-02-07T17:16:56.746Z,102697.53
2023-02-07T17:19:31.721Z,102701.88
2023-02-07T17:22:03.966Z,102715.31
2023-02-07T17:24:35.992Z,102696.53
2023-02-07T17:27:08.009Z,102694.69
2023-02-07T17:29:40.736Z,102663.78
2023-02-07T17:32:12.823Z,102702.38
2023-02-07T17:34:44.878Z,102718.81
2023-02-07T17:37:16.877Z,102684.28
2023-02-07T17:39:48.991Z,102712.53
2023-02-07T17:42:20.965Z,102722.03
2023-02-07T17:44:52.955Z,102700.59
2023-02-07T17:47:25.263Z,102743.41
2023-02-07T17:49:57.213Z,102703.09
2023-02-07T17:52:29.148Z,102718.47
2023-02-07T17:55:01.083Z,102755.31
2023-02-07T17:57:32.982Z,102749.19
2023-02-07T18:00:05.755Z,102757.78
2023-02-07T18:02:38.037Z,102720.22
2023-02-07T18:05:10.827Z,102703.69
2023-02-07T18:07:43.656Z,102752.06
2023-02-07T18:10:22.478Z,102752.88
2023-02-07T18:12:54.618Z,102744.34
2023-02-07T18:15:28.185Z,102761.19
2023-02-07T18:18:00.261Z,102734.00
2023-02-07T18:20:34.278Z,102748.69
2023-02-07T18:23:06.280Z,102740.78
2023-02-07T18:25:38.922Z,102754.56
2023-02-07T18:28:11.043Z,102749.09
2023-02-07T18:30:43.914Z,102750.97
2023-02-07T18:33:17.427Z,102756.94
2023-02-07T18:35:56.550Z,102720.91
2023-02-07T18:38:28.581Z,102733.88
2023-02-07T18:41:00.564Z,102746.50
2023-02-07T18:43:32.549Z,102769.06
2023-02-07T18:46:12.237Z,102747.56
2023-02-07T18:48:45.324Z,102776.50
2023-02-07T18:51:18.956Z,102781.56
2023-02-07T18:53:51.898Z,102774.84
2023-02-07T18:56:26.492Z,102774.84
2023-02-07T18:58:59.360Z,102754.34
2023-02-07T19:01:31.942Z,102753.47
2023-02-07T19:04:04.000Z,102760.81
2023-02-07T19:06:36.475Z,102767.06
2023-02-07T19:09:09.610Z,102779.84
2023-02-07T19:11:41.547Z,102771.38
2023-02-07T19:14:19.223Z,102715.50
2023-02-07T19:16:56.033Z,102763.69
2023-02-07T19:19:30.772Z,102722.44
2023-02-07T19:22:02.716Z,102725.00
2023-02-07T19:24:34.826Z,102729.25
2023-02-07T19:27:07.494Z,102782.53
2023-02-07T19:29:39.648Z,102783.31
2023-02-07T19:32:11.706Z,102775.63
2023-02-07T19:34:43.674Z,102782.41
2023-02-07T19:37:15.610Z,102781.34
2023-02-07T19:39:49.369Z,102764.19
2023-02-07T19:42:21.361Z,102752.13
2023-02-07T19:44:53.515Z,102782.28
2023-02-07T19:47:25.572Z,102796.78
2023-02-07T19:49:57.568Z,102773.59
2023-02-07T19:52:30.619Z,102799.97
2023-02-07T19:55:02.646Z,102803.63
2023-02-07T19:57:35.501Z,102769.28
2023-02-07T20:00:08.386Z,102788.88
2023-02-07T20:02:40.545Z,102810.34
2023-02-07T20:05:12.771Z,102792.13
2023-02-07T20:07:44.780Z,102787.03
2023-02-07T20:10:16.681Z,102761.34
2023-02-07T20:12:49.349Z,102810.19
2023-02-07T20:15:21.400Z,102808.56
2023-02-07T20:17:54.568Z,102763.66
2023-02-07T20:20:26.661Z,102787.81
2023-02-07T20:22:58.638Z,102794.63
2023-02-07T20:25:33.889Z,102754.31
2023-02-07T20:28:07.694Z,102766.47
2023-02-07T20:30:45.369Z,102799.88
2023-02-07T20:33:17.280Z,102743.91
2023-02-07T20:35:49.328Z,102742.31
2023-02-07T20:38:21.312Z,102803.25
2023-02-07T20:40:53.454Z,102778.84
2023-02-07T20:43:25.732Z,102820.97
2023-02-07T20:46:10.964Z,102828.63
2023-02-07T20:48:43.696Z,102779.09
2023-02-07T20:51:15.623Z,102796.25
2023-02-07T20:53:47.790Z,102835.66
2023-02-07T20:56:20.212Z,102791.22
2023-02-07T20:58:52.662Z,102843.53
2023-02-07T21:01:27.431Z,102827.31
2023-02-07T21:04:02.682Z,102839.91
2023-02-07T21:06:35.825Z,102780.03
2023-02-07T21:09:08.428Z,102848.50
2023-02-07T21:11:46.159Z,102822.03
2023-02-07T21:14:25.266Z,102853.03
2023-02-07T21:17:01.711Z,102850.47
2023-02-07T21:19:35.146Z,102827.28
2023-02-07T21:22:07.905Z,102853.84
2023-02-07T21:24:40.244Z,102847.72
2023-02-07T21:27:12.926Z,102855.44
2023-02-07T21:29:45.159Z,102846.19
2023-02-07T21:32:17.261Z,102860.00
2023-02-07T21:34:49.468Z,102847.13
2023-02-07T21:37:21.462Z,102859.78
2023-02-07T21:39:53.602Z,102847.09
2023-02-07T21:42:25.599Z,102868.50
2023-02-07T21:44:57.707Z,102837.38
2023-02-07T21:47:29.639Z,102836.56
2023-02-07T21:50:01.735Z,102864.78
2023-02-07T21:52:34.339Z,102870.91
2023-02-07T21:55:06.743Z,102851.84
2023-02-07T21:57:41.835Z,102852.75
2023-02-07T22:00:14.370Z,102860.56
2023-02-07T22:02:46.403Z,102862.28
2023-02-07T22:05:18.530Z,102846.63
2023-02-07T22:07:50.505Z,102870.91
2023-02-07T22:10:22.394Z,102859.50
2023-02-07T22:12:54.457Z,102857.91
2023-02-07T22:15:27.147Z,102869.09
2023-02-07T22:17:59.136Z,102890.50
2023-02-07T22:20:31.299Z,102855.38
2023-02-07T22:23:03.219Z,102879.38
2023-02-07T22:25:35.150Z,102880.34
2023-02-07T22:28:07.264Z,102891.50
2023-02-07T22:30:41.916Z,102876.03
2023-02-07T22:33:14.188Z,102895.78
2023-02-07T22:35:47.618Z,102894.13
2023-02-07T22:38:19.577Z,102881.94
2023-02-07T22:40:51.525Z,102878.41
2023-02-07T22:43:23.412Z,102896.28
2023-02-07T22:45:55.572Z,102894.44
2023-02-07T22:48:27.635Z,102889.31
2023-02-07T22:51:00.314Z,102905.56
2023-02-07T22:53:32.265Z,102895.91
2023-02-07T22:56:04.598Z,102836.59
2023-02-07T22:58:37.290Z,102910.59
2023-02-07T23:01:20.682Z,102908.22
2023-02-07T23:03:53.419Z,102907.31
2023-02-07T23:06:26.450Z,102905.56
2023-02-07T23:08:59.035Z,102895.41
2023-02-07T23:11:30.986Z,102883.19
2023-02-07T23:14:04.284Z,102825.66
2023-02-07T23:16:37.466Z,102857.50
2023-02-07T23:19:15.828Z,102856.59
2023-02-07T23:21:47.821Z,102907.69
2023-02-07T23:24:19.818Z,102847.94
2023-02-07T23:26:51.863Z,102869.28
2023-02-07T23:29:23.842Z,102854.78
2023-02-07T23:31:55.915Z,102857.19
2023-02-07T23:34:27.932Z,102913.09
2023-02-07T23:37:02.790Z,102886.50
2023-02-07T23:39:35.297Z,102888.16
2023-02-07T23:42:10.723Z,102907.16
2023-02-07T23:44:42.631Z,102920.97
2023-02-07T23:47:14.691Z,102920.97
2023-02-07T23:49:46.608Z,102911.47
2023-02-07T23:52:18.578Z,102896.00
2023-02-07T23:54:50.571Z,102927.06
2023-02-07T23:57:22.557Z,102919.16
2023-02-07T23:59:54.966Z,102913.94
